KVPZ/VPZ METAR and TAF weather

Enter ICAO airport designator
Station Type Date Time Source
KVPZ METAR 2019/06/27 09:56 UTC NOAA

KVPZ 270956Z AUTO 00000KT 10SM FEW120 19/17 A3014 RMK AO2 SLP200 T01940172 $


Station Type Date Time Source
KVPZ Decoded METAR 2019/06/27 09:56 UTC NOAA

VALPARAISO PORTER CO MUNI, IN, United States (KVPZ) 41-27N 087-00W 231M
Jun 27, 2019 - 05:56 AM EDT / 2019.06.27 0956 UTC
Wind: Calm:0
Visibility: 10 mile(s):0
Sky conditions: mostly clear
Temperature: 66.9 F (19.4 C)
Dew Point: 63.0 F (17.2 C)
Relative Humidity: 87%
Pressure (altimeter): 30.14 in. Hg (1020 hPa)
ob: KVPZ 270956Z AUTO 00000KT 10SM FEW120 19/17 A3014 RMK AO2 SLP200 T01940172
cycle: 10

Station Type Date Time Source
KVPZ TAF UTC NOAA

Error!

Example: see airport list